createdAt,value
2018-04-16T00:02:24.638Z,100577.03
2018-04-16T00:04:53.051Z,100586.98
2018-04-16T00:07:22.221Z,100583.15
2018-04-16T00:09:50.727Z,100589.17
2018-04-16T00:12:19.112Z,100589.52
2018-04-16T00:14:47.498Z,100586.42
2018-04-16T00:17:16.642Z,100585.55
2018-04-16T00:19:45.030Z,100580.32
2018-04-16T00:22:13.418Z,100580.41
2018-04-16T00:24:41.918Z,100576.88
2018-04-16T00:27:10.322Z,100575.52
2018-04-16T00:29:38.706Z,100581.56
2018-04-16T00:32:12.528Z,100587.56
2018-04-16T00:34:47.154Z,100594.41
2018-04-16T00:37:22.622Z,100596.09
2018-04-16T00:39:56.450Z,100596.90
2018-04-16T00:42:30.410Z,100599.06
2018-04-16T00:45:05.067Z,100603.36
2018-04-16T00:47:38.930Z,100602.06
2018-04-16T00:50:12.732Z,100601.55
2018-04-16T00:52:46.569Z,100597.61
2018-04-16T00:55:21.129Z,100597.89
2018-04-16T00:57:54.860Z,100604.73
2018-04-16T01:00:28.700Z,100605.43
2018-04-16T01:03:03.365Z,100605.77
2018-04-16T01:05:37.362Z,100610.88
2018-04-16T01:08:11.185Z,100609.00
2018-04-16T01:10:45.102Z,100615.88
2018-04-16T01:13:18.790Z,100619.23
2018-04-16T01:15:52.585Z,100624.14
2018-04-16T01:18:26.502Z,100616.69
2018-04-16T01:21:00.467Z,100620.97
2018-04-16T01:23:35.118Z,100620.48
2018-04-16T01:26:09.073Z,100619.28
2018-04-16T01:28:42.809Z,100619.66
2018-04-16T01:31:17.429Z,100629.12
2018-04-16T01:33:51.322Z,100636.81
2018-04-16T01:36:25.050Z,100636.13
2018-04-16T01:38:59.608Z,100633.00
2018-04-16T01:41:33.323Z,100629.46
2018-04-16T01:44:07.233Z,100629.73
2018-04-16T01:46:40.932Z,100627.94
2018-04-16T01:49:14.711Z,100634.80
2018-04-16T01:51:49.205Z,100632.95
2018-04-16T01:54:23.102Z,100626.42
2018-04-16T01:56:57.018Z,100627.28
2018-04-16T01:59:30.783Z,100625.05
2018-04-16T02:02:04.503Z,100631.84
2018-04-16T02:07:41.029Z,100621.90
2018-04-16T02:10:15.634Z,100624.69
2018-04-16T02:12:49.536Z,100634.06
2018-04-16T02:18:28.929Z,100647.20
2018-04-16T02:21:02.650Z,100642.16
2018-04-16T02:23:36.351Z,100642.75
2018-04-16T02:26:10.180Z,100633.58
2018-04-16T02:28:43.890Z,100633.45
2018-04-16T02:31:17.691Z,100627.70
2018-04-16T02:33:51.589Z,100628.43
2018-04-16T02:36:25.401Z,100638.25
2018-04-16T02:38:59.290Z,100646.53
2018-04-16T02:44:34.915Z,100649.63
2018-04-16T02:47:08.841Z,100646.17
2018-04-16T02:49:42.615Z,100641.72
2018-04-16T02:52:17.267Z,100645.84
2018-04-16T02:54:50.993Z,100644.63
2018-04-16T02:57:24.886Z,100643.07
2018-04-16T02:59:58.797Z,100648.56
2018-04-16T03:02:32.513Z,100654.91
2018-04-16T03:05:06.232Z,100655.22
2018-04-16T03:07:40.019Z,100655.00
2018-04-16T03:10:13.838Z,100653.16
2018-04-16T03:12:48.374Z,100658.53
2018-04-16T03:15:22.192Z,100662.50
2018-04-16T03:17:56.057Z,100660.55
2018-04-16T03:20:29.829Z,100660.84
2018-04-16T03:23:04.340Z,100659.84
2018-04-16T03:25:38.289Z,100658.25
2018-04-16T03:28:12.238Z,100660.17
2018-04-16T03:30:46.038Z,100662.00
2018-04-16T03:36:20.536Z,100676.42
2018-04-16T03:38:54.221Z,100678.27
2018-04-16T03:41:27.971Z,100688.22
2018-04-16T03:44:01.676Z,100684.77
2018-04-16T03:46:35.365Z,100688.66
2018-04-16T03:49:09.269Z,100687.74
2018-04-16T03:54:37.186Z,100673.38
2018-04-16T03:57:05.567Z,100684.83
2018-04-16T03:59:33.946Z,100689.41
2018-04-16T04:02:02.356Z,100689.22
2018-04-16T04:04:30.744Z,100694.70
2018-04-16T04:06:59.158Z,100698.61
2018-04-16T04:09:27.546Z,100691.37
2018-04-16T04:11:55.943Z,100697.98
2018-04-16T04:14:24.357Z,100701.52
2018-04-16T04:16:52.745Z,100701.59
2018-04-16T04:19:21.886Z,100703.42
2018-04-16T04:21:50.276Z,100703.49
2018-04-16T04:24:37.206Z,100705.64
2018-04-16T04:30:30.853Z,100702.31
2018-04-16T04:33:00.073Z,100705.05
2018-04-16T04:35:28.463Z,100703.02
2018-04-16T04:37:56.862Z,100710.86
2018-04-16T04:40:25.253Z,100707.08
2018-04-16T04:42:54.397Z,100708.54
2018-04-16T04:45:22.786Z,100716.81
2018-04-16T04:47:51.171Z,100718.16
2018-04-16T04:50:19.565Z,100726.88
2018-04-16T04:52:47.958Z,100732.03
2018-04-16T04:55:16.357Z,100743.67
2018-04-16T04:57:44.829Z,100743.11
2018-04-16T05:00:13.224Z,100754.30
2018-04-16T05:02:41.623Z,100746.84
2018-04-16T05:05:10.045Z,100743.43
2018-04-16T05:07:38.493Z,100748.85
2018-04-16T05:10:08.493Z,100751.61
2018-04-16T05:12:36.871Z,100755.56
2018-04-16T05:15:05.266Z,100758.65
2018-04-16T05:17:33.633Z,100753.09
2018-04-16T05:20:02.041Z,100757.77
2018-04-16T05:22:31.212Z,100760.62
2018-04-16T05:24:59.618Z,100757.28
2018-04-16T05:27:27.986Z,100765.43
2018-04-16T05:29:56.349Z,100769.61
2018-04-16T05:32:24.755Z,100765.86
2018-04-16T05:34:53.141Z,100770.12
2018-04-16T05:37:21.534Z,100765.62
2018-04-16T05:39:50.675Z,100765.17
2018-04-16T05:42:19.066Z,100765.28
2018-04-16T05:44:47.526Z,100763.99
2018-04-16T05:47:15.929Z,100777.06
2018-04-16T05:49:44.331Z,100773.62
2018-04-16T05:52:12.717Z,100777.97
2018-04-16T05:54:41.115Z,100774.06
2018-04-16T05:57:09.518Z,100785.34
2018-04-16T05:59:37.993Z,100781.02
2018-04-16T06:02:06.394Z,100781.44
2018-04-16T06:04:35.542Z,100787.53
2018-04-16T06:07:03.909Z,100788.42
2018-04-16T06:09:32.294Z,100787.95
2018-04-16T06:12:00.678Z,100788.34
2018-04-16T06:14:29.085Z,100787.11
2018-04-16T06:16:57.466Z,100794.89
2018-04-16T06:19:25.894Z,100806.53
2018-04-16T06:21:55.071Z,100801.93
2018-04-16T06:24:23.437Z,100799.32
2018-04-16T06:26:51.826Z,100806.08
2018-04-16T06:29:20.223Z,100811.58
2018-04-16T06:31:48.605Z,100810.16
2018-04-16T06:34:16.978Z,100811.50
2018-04-16T06:36:45.361Z,100816.05
2018-04-16T06:39:13.813Z,100824.02
2018-04-16T06:41:42.183Z,100827.44
2018-04-16T06:44:10.557Z,100828.34
2018-04-16T06:46:39.701Z,100836.58
2018-04-16T06:49:08.073Z,100838.83
2018-04-16T06:51:36.455Z,100838.34
2018-04-16T06:54:04.833Z,100836.83
2018-04-16T06:56:33.294Z,100835.78
2018-04-16T06:59:02.455Z,100844.42
2018-04-16T07:01:30.928Z,100841.00
2018-04-16T07:03:59.335Z,100847.53
2018-04-16T07:06:27.723Z,100846.89
2018-04-16T07:08:56.105Z,100842.77
2018-04-16T07:11:24.476Z,100848.91
2018-04-16T07:13:52.879Z,100848.77
2018-04-16T07:16:22.048Z,100845.85
2018-04-16T07:18:50.451Z,100848.69
2018-04-16T07:21:18.812Z,100856.02
2018-04-16T07:23:47.198Z,100856.50
2018-04-16T07:26:15.568Z,100855.10
2018-04-16T07:28:43.968Z,100866.81
2018-04-16T07:31:12.341Z,100864.02
2018-04-16T07:33:40.807Z,100865.57
2018-04-16T07:36:09.148Z,100874.75
2018-04-16T07:38:38.292Z,100867.84
2018-04-16T07:41:06.698Z,100874.14
2018-04-16T07:43:35.085Z,100884.05
2018-04-16T07:46:03.479Z,100889.95
2018-04-16T07:48:31.890Z,100885.63
2018-04-16T07:51:00.318Z,100897.87
2018-04-16T07:53:28.886Z,100894.52
2018-04-16T07:55:57.328Z,100895.15
2018-04-16T07:58:26.493Z,100897.03
2018-04-16T08:00:54.871Z,100895.77
2018-04-16T08:03:23.285Z,100901.49
2018-04-16T08:05:51.685Z,100898.52
2018-04-16T08:08:20.827Z,100900.38
2018-04-16T08:10:49.206Z,100897.29
2018-04-16T08:13:17.597Z,100901.48
2018-04-16T08:15:45.973Z,100904.80
2018-04-16T08:18:14.341Z,100908.23
2018-04-16T08:20:42.753Z,100909.91
2018-04-16T08:23:11.161Z,100907.82
2018-04-16T08:25:39.549Z,100916.31
2018-04-16T08:28:07.976Z,100918.97
2018-04-16T08:30:36.427Z,100923.06
2018-04-16T08:33:04.814Z,100925.56
2018-04-16T08:35:33.195Z,100930.05
2018-04-16T08:38:01.627Z,100928.44
2018-04-16T08:40:30.113Z,100928.18
2018-04-16T08:42:58.515Z,100932.70
2018-04-16T08:45:26.941Z,100922.44
2018-04-16T08:47:56.167Z,100928.42
2018-04-16T08:50:24.544Z,100927.89
2018-04-16T08:52:52.927Z,100929.85
2018-04-16T08:55:21.290Z,100936.52
2018-04-16T08:57:50.429Z,100935.92
2018-04-16T09:00:18.829Z,100939.65
2018-04-16T09:02:47.213Z,100939.12
2018-04-16T09:05:16.491Z,100940.58
2018-04-16T09:07:44.936Z,100945.73
2018-04-16T09:10:13.329Z,100936.59
2018-04-16T09:12:42.478Z,100941.78
2018-04-16T09:15:10.855Z,100942.65
2018-04-16T09:17:39.245Z,100942.41
2018-04-16T09:20:08.164Z,100945.52
2018-04-16T09:22:36.538Z,100944.34
2018-04-16T09:25:05.034Z,100952.12
2018-04-16T09:27:33.418Z,100962.29
2018-04-16T09:30:01.853Z,100960.06
2018-04-16T09:32:30.237Z,100966.55
2018-04-16T09:34:58.666Z,100971.24
2018-04-16T09:37:27.178Z,100973.56
2018-04-16T09:39:56.340Z,100976.79
2018-04-16T09:42:24.722Z,100978.84
2018-04-16T09:44:53.098Z,100977.89
2018-04-16T09:47:21.938Z,100980.34
2018-04-16T09:49:51.081Z,100977.01
2018-04-16T09:52:19.548Z,100978.30
2018-04-16T09:54:47.940Z,100984.59
2018-04-16T09:57:16.501Z,100986.91
2018-04-16T09:59:45.643Z,100984.12
2018-04-16T10:02:19.446Z,100985.00
2018-04-16T10:04:47.911Z,100986.95
2018-04-16T10:07:16.305Z,100991.18
2018-04-16T10:09:44.687Z,100986.43
2018-04-16T10:12:13.111Z,100985.68
2018-04-16T10:14:41.557Z,100988.92
2018-04-16T10:17:09.945Z,100986.13
2018-04-16T10:19:38.353Z,100988.40
2018-04-16T10:22:06.758Z,100987.95
2018-04-16T10:24:35.160Z,100975.85
2018-04-16T10:27:04.306Z,100981.41
2018-04-16T10:29:32.689Z,100980.77
2018-04-16T10:32:01.081Z,100978.40
2018-04-16T10:34:29.506Z,100981.39
2018-04-16T10:36:58.658Z,100981.30
2018-04-16T10:39:27.066Z,100978.77
2018-04-16T10:41:55.454Z,100980.77
2018-04-16T10:44:23.835Z,100983.23
2018-04-16T10:46:52.226Z,100985.55
2018-04-16T10:49:20.614Z,100988.13
2018-04-16T10:51:48.990Z,100989.58
2018-04-16T10:54:17.497Z,100996.05
2018-04-16T10:56:46.658Z,100991.19
2018-04-16T10:59:15.043Z,101003.80
2018-04-16T11:01:43.419Z,100987.41
2018-04-16T11:04:11.801Z,100993.63
2018-04-16T11:06:40.193Z,100996.81
2018-04-16T11:09:08.573Z,100995.41
2018-04-16T11:11:37.770Z,100990.25
2018-04-16T11:14:06.145Z,100995.89
2018-04-16T11:16:34.528Z,100998.76
2018-04-16T11:19:03.023Z,100999.64
2018-04-16T11:21:31.402Z,101000.65
2018-04-16T11:23:59.794Z,100997.54
2018-04-16T11:26:28.230Z,101004.16
2018-04-16T11:28:56.580Z,100995.73
2018-04-16T11:31:24.975Z,100994.61
2018-04-16T11:33:54.203Z,101004.27
2018-04-16T11:36:22.595Z,101002.30
2018-04-16T11:38:50.999Z,100998.74
2018-04-16T11:41:19.393Z,101007.53
2018-04-16T11:43:47.777Z,101008.41
2018-04-16T11:46:16.204Z,101004.34
2018-04-16T11:48:45.344Z,101004.13
2018-04-16T11:51:13.737Z,101003.33
2018-04-16T11:53:42.156Z,101004.22
2018-04-16T11:56:11.362Z,101005.43
2018-04-16T11:58:40.517Z,101007.89
2018-04-16T12:01:08.893Z,101005.51
2018-04-16T12:03:37.308Z,101010.34
2018-04-16T12:06:05.690Z,101009.94
2018-04-16T12:08:34.094Z,101006.09
2018-04-16T12:11:02.538Z,101012.41
2018-04-16T12:13:31.017Z,101007.02
2018-04-16T12:15:59.427Z,101009.08
2018-04-16T12:18:27.794Z,101013.10
2018-04-16T12:20:56.218Z,101007.83
2018-04-16T12:23:25.366Z,101008.98
2018-04-16T12:25:53.755Z,101001.34
2018-04-16T12:28:22.138Z,101012.80
2018-04-16T12:30:50.518Z,101007.83
2018-04-16T12:33:18.929Z,101002.95
2018-04-16T12:35:47.327Z,101012.09
2018-04-16T12:38:15.729Z,101012.47
2018-04-16T12:40:44.880Z,101013.20
2018-04-16T12:43:13.301Z,101013.30
2018-04-16T12:45:42.535Z,101011.44
2018-04-16T12:48:10.942Z,101023.77
2018-04-16T12:50:39.322Z,101022.70
2018-04-16T12:53:07.819Z,101026.55
2018-04-16T12:55:36.224Z,101022.67
2018-04-16T12:58:04.590Z,101025.95
2018-04-16T13:00:33.012Z,101028.89
2018-04-16T13:03:02.146Z,101032.59
2018-04-16T13:05:30.529Z,101026.67
2018-04-16T13:07:58.956Z,101035.84
2018-04-16T13:10:27.365Z,101032.64
2018-04-16T13:12:56.521Z,101031.84
2018-04-16T13:15:24.930Z,101032.61
2018-04-16T13:17:53.326Z,101028.76
2018-04-16T13:20:21.730Z,101022.58
2018-04-16T13:22:50.140Z,101029.29
2018-04-16T13:25:18.534Z,101033.09
2018-04-16T13:27:46.960Z,101045.24
2018-04-16T13:30:16.090Z,101048.59
2018-04-16T13:32:44.484Z,101056.70
2018-04-16T13:35:12.974Z,101054.02
2018-04-16T13:37:41.359Z,101040.14
2018-04-16T13:40:09.782Z,101050.98
2018-04-16T13:42:38.157Z,101049.62
2018-04-16T13:45:06.591Z,101052.53
2018-04-16T13:47:34.970Z,101046.11
2018-04-16T13:50:03.474Z,101050.58
2018-04-16T13:52:31.856Z,101055.91
2018-04-16T13:55:00.239Z,101055.38
2018-04-16T13:57:29.578Z,101060.78
2018-04-16T13:59:57.982Z,101051.98
2018-04-16T14:02:26.397Z,101053.13
2018-04-16T14:04:54.799Z,101051.45
2018-04-16T14:07:23.200Z,101046.44
2018-04-16T14:09:51.582Z,101047.80
2018-04-16T14:12:19.983Z,101050.09
2018-04-16T14:14:49.150Z,101057.66
2018-04-16T14:17:17.570Z,101055.81
2018-04-16T14:19:45.974Z,101062.88
2018-04-16T14:22:15.160Z,101067.25
2018-04-16T14:24:43.541Z,101060.36
2018-04-16T14:27:11.941Z,101062.41
2018-04-16T14:29:41.097Z,101065.30
2018-04-16T14:32:09.482Z,101070.86
2018-04-16T14:34:37.879Z,101076.12
2018-04-16T14:37:06.279Z,101069.62
2018-04-16T14:39:34.688Z,101071.57
2018-04-16T14:42:03.861Z,101076.02
2018-04-16T14:44:32.297Z,101070.91
2018-04-16T14:47:00.667Z,101071.77
2018-04-16T14:49:29.075Z,101074.90
2018-04-16T14:51:57.473Z,101078.29
2018-04-16T14:54:25.878Z,101080.70
2018-04-16T14:56:54.260Z,101089.53
2018-04-16T14:59:22.819Z,101086.47
2018-04-16T15:01:51.338Z,101087.16
2018-04-16T15:04:19.725Z,101087.72
2018-04-16T15:06:48.139Z,101089.55
2018-04-16T15:09:16.541Z,101083.73
2018-04-16T15:11:44.973Z,101080.28
2018-04-16T15:14:13.607Z,101076.41
2018-04-16T15:16:42.018Z,101083.88
2018-04-16T15:19:10.448Z,101082.27
2018-04-16T15:21:39.626Z,101083.34
2018-04-16T15:24:08.026Z,101083.52
2018-04-16T15:26:36.398Z,101087.55
2018-04-16T15:29:04.791Z,101084.22
2018-04-16T15:31:33.957Z,101080.69
2018-04-16T15:34:02.409Z,101091.50
2018-04-16T15:36:30.783Z,101087.02
2018-04-16T15:38:59.162Z,101085.69
2018-04-16T15:41:28.307Z,101084.08
2018-04-16T15:43:56.777Z,101082.33
2018-04-16T15:46:25.155Z,101077.39
2018-04-16T15:48:53.531Z,101075.39
2018-04-16T15:51:21.920Z,101087.27
2018-04-16T15:53:50.354Z,101086.58
2018-04-16T15:56:18.764Z,101082.94
2018-04-16T15:58:47.158Z,101090.38
2018-04-16T16:01:15.544Z,101085.73
2018-04-16T16:03:43.931Z,101093.48
2018-04-16T16:06:12.481Z,101089.46
2018-04-16T16:08:41.643Z,101089.38
2018-04-16T16:11:10.102Z,101090.55
2018-04-16T16:13:38.498Z,101089.27
2018-04-16T16:16:06.906Z,101105.09
2018-04-16T16:18:35.298Z,101106.30
2018-04-16T16:21:03.687Z,101112.36
2018-04-16T16:23:32.078Z,101107.80
2018-04-16T16:26:01.216Z,101112.19
2018-04-16T16:28:29.653Z,101112.36
2018-04-16T16:30:58.042Z,101110.00
2018-04-16T16:33:26.442Z,101115.70
2018-04-16T16:35:55.619Z,101113.72
2018-04-16T16:38:24.001Z,101115.89
2018-04-16T16:40:52.461Z,101118.58
2018-04-16T16:43:20.821Z,101122.64
2018-04-16T16:45:49.346Z,101118.80
2018-04-16T16:48:17.730Z,101127.53
2018-04-16T16:50:46.142Z,101130.75
2018-04-16T16:53:15.303Z,101131.84
2018-04-16T16:55:43.703Z,101126.93
2018-04-16T16:58:12.063Z,101135.69
2018-04-16T17:00:40.502Z,101131.20
2018-04-16T17:03:09.722Z,101131.25
2018-04-16T17:05:38.124Z,101135.50
2018-04-16T17:08:06.533Z,101143.20
2018-04-16T17:10:34.923Z,101141.45
2018-04-16T17:13:03.313Z,101143.81
2018-04-16T17:15:31.725Z,101147.08
2018-04-16T17:18:00.133Z,101151.66
2018-04-16T17:20:28.531Z,101156.17
2018-04-16T17:22:56.946Z,101151.40
2018-04-16T17:25:25.376Z,101157.06
2018-04-16T17:27:53.770Z,101156.42
2018-04-16T17:30:22.159Z,101164.36
2018-04-16T17:32:50.557Z,101163.92
2018-04-16T17:35:18.938Z,101169.69
2018-04-16T17:37:47.413Z,101168.79
2018-04-16T17:40:15.824Z,101173.33
2018-04-16T17:42:44.217Z,101174.66
2018-04-16T17:45:12.685Z,101173.30
2018-04-16T17:47:41.073Z,101178.98
2018-04-16T17:50:09.473Z,101174.56
2018-04-16T17:52:37.876Z,101180.77
2018-04-16T17:55:07.086Z,101186.06
2018-04-16T17:57:35.422Z,101194.44
2018-04-16T18:00:03.830Z,101198.46
2018-04-16T18:02:32.971Z,101194.28
2018-04-16T18:05:01.358Z,101202.27
2018-04-16T18:07:29.755Z,101209.31
2018-04-16T18:09:58.162Z,101217.23
2018-04-16T18:12:26.598Z,101221.16
2018-04-16T18:14:55.041Z,101222.43
2018-04-16T18:17:23.421Z,101224.64
2018-04-16T18:19:51.817Z,101224.62
2018-04-16T18:22:20.971Z,101233.81
2018-04-16T18:24:49.389Z,101236.03
2018-04-16T18:27:17.787Z,101242.09
2018-04-16T18:29:46.219Z,101247.31
2018-04-16T18:32:14.639Z,101255.61
2018-04-16T18:34:43.006Z,101254.70
2018-04-16T18:37:11.398Z,101259.84
2018-04-16T18:39:39.783Z,101265.48
2018-04-16T18:42:08.183Z,101267.59
2018-04-16T18:44:37.359Z,101272.75
2018-04-16T18:47:05.791Z,101272.25
2018-04-16T18:49:34.962Z,101283.11
2018-04-16T18:52:03.367Z,101294.02
2018-04-16T18:54:31.969Z,101293.19
2018-04-16T18:57:00.623Z,101305.26
2018-04-16T18:59:29.133Z,101305.55
2018-04-16T19:01:57.545Z,101309.02
2018-04-16T19:04:25.963Z,101321.95
2018-04-16T19:06:54.434Z,101324.83
2018-04-16T19:09:22.861Z,101334.38
2018-04-16T19:11:52.092Z,101336.52
2018-04-16T19:14:20.511Z,101339.09
2018-04-16T19:16:48.959Z,101341.59
2018-04-16T19:19:17.403Z,101341.51
2018-04-16T19:21:51.152Z,101355.79
2018-04-16T19:24:19.533Z,101357.88
2018-04-16T19:26:53.266Z,101366.84
2018-04-16T19:29:21.654Z,101364.22
2018-04-16T19:31:50.126Z,101371.09
2018-04-16T19:34:23.792Z,101375.34
2018-04-16T19:36:52.287Z,101380.83
2018-04-16T19:39:20.673Z,101389.00
2018-04-16T19:41:54.463Z,101387.91
2018-04-16T19:44:23.650Z,101395.22
2018-04-16T19:46:52.839Z,101396.08
2018-04-16T19:49:26.721Z,101402.87
2018-04-16T19:51:55.133Z,101407.70
2018-04-16T19:54:23.519Z,101415.95
2018-04-16T19:56:57.461Z,101419.82
2018-04-16T19:59:25.875Z,101422.41
2018-04-16T20:01:59.783Z,101419.87
2018-04-16T20:04:28.243Z,101421.11
2018-04-16T20:06:56.715Z,101428.94
2018-04-16T20:09:25.139Z,101427.75
2018-04-16T20:11:53.544Z,101422.36
2018-04-16T20:14:21.963Z,101429.77
2018-04-16T20:16:51.154Z,101436.21
2018-04-16T20:19:20.349Z,101438.03
2018-04-16T20:21:48.779Z,101439.44
2018-04-16T20:24:17.157Z,101445.41
2018-04-16T20:26:45.604Z,101452.13
2018-04-16T20:29:14.773Z,101450.67
2018-04-16T20:31:43.964Z,101449.95
2018-04-16T20:34:13.140Z,101454.05
2018-04-16T20:36:41.577Z,101451.30
2018-04-16T20:39:09.987Z,101454.59
2018-04-16T20:41:39.185Z,101456.86
2018-04-16T20:44:08.392Z,101463.63
2018-04-16T20:46:36.797Z,101463.78
2018-04-16T20:49:05.299Z,101466.64
2018-04-16T20:51:33.767Z,101466.81
2018-04-16T20:54:02.348Z,101469.12
2018-04-16T20:56:30.759Z,101468.91
2018-04-16T20:58:59.150Z,101470.14
2018-04-16T21:01:27.596Z,101474.39
2018-04-16T21:03:56.001Z,101480.31
2018-04-16T21:06:24.481Z,101479.16
2018-04-16T21:08:52.902Z,101486.86
2018-04-16T21:11:21.271Z,101489.24
2018-04-16T21:13:49.670Z,101482.67
2018-04-16T21:16:18.055Z,101484.82
2018-04-16T21:18:46.438Z,101490.27
2018-04-16T21:21:14.846Z,101492.38
2018-04-16T21:23:44.040Z,101491.73
2018-04-16T21:26:12.537Z,101496.22
2018-04-16T21:28:40.973Z,101498.80
2018-04-16T21:31:09.429Z,101500.81
2018-04-16T21:33:37.819Z,101501.37
2018-04-16T21:36:06.225Z,101502.67
2018-04-16T21:38:34.608Z,101508.00
2018-04-16T21:41:03.039Z,101507.14
2018-04-16T21:43:32.224Z,101506.16
2018-04-16T21:46:01.391Z,101515.31
2018-04-16T21:48:29.811Z,101512.39
2018-04-16T21:50:58.958Z,101511.40
2018-04-16T21:53:27.354Z,101514.08
2018-04-16T21:55:56.511Z,101514.73
2018-04-16T21:58:24.885Z,101513.06
2018-04-16T22:00:54.062Z,101518.77
2018-04-16T22:03:22.447Z,101528.12
2018-04-16T22:05:50.890Z,101522.48
2018-04-16T22:08:19.388Z,101528.77
2018-04-16T22:10:47.778Z,101527.47
2018-04-16T22:13:16.169Z,101533.81
2018-04-16T22:15:44.573Z,101529.92
2018-04-16T22:18:13.729Z,101536.61
2018-04-16T22:20:42.113Z,101534.16
2018-04-16T22:23:10.500Z,101536.23
2018-04-16T22:25:38.895Z,101541.52
2018-04-16T22:28:07.382Z,101548.48
2018-04-16T22:30:35.758Z,101549.98
2018-04-16T22:33:04.134Z,101552.03
2018-04-16T22:35:32.500Z,101556.63
2018-04-16T22:38:01.012Z,101565.50
2018-04-16T22:40:29.414Z,101563.47
2018-04-16T22:42:57.812Z,101571.22
2018-04-16T22:45:28.022Z,101568.15
2018-04-16T22:47:57.217Z,101576.55
2018-04-16T22:50:25.601Z,101574.99
2018-04-16T22:52:54.022Z,101577.73
2018-04-16T22:55:23.162Z,101574.27
2018-04-16T22:57:51.557Z,101585.13
2018-04-16T23:00:19.981Z,101592.22
2018-04-16T23:02:49.119Z,101600.71
2018-04-16T23:05:17.511Z,101594.54
2018-04-16T23:07:45.897Z,101598.28
2018-04-16T23:10:14.278Z,101592.96
2018-04-16T23:12:42.646Z,101588.08
2018-04-16T23:15:11.052Z,101603.83
2018-04-16T23:17:39.448Z,101601.53
2018-04-16T23:20:08.862Z,101605.34
2018-04-16T23:22:37.264Z,101607.93
2018-04-16T23:25:06.410Z,101607.63
2018-04-16T23:27:34.809Z,101612.72
2018-04-16T23:30:03.226Z,101609.69
2018-04-16T23:32:31.622Z,101614.36
2018-04-16T23:35:00.782Z,101617.50
2018-04-16T23:37:29.157Z,101618.23
2018-04-16T23:39:57.525Z,101614.67
2018-04-16T23:42:25.902Z,101620.98
2018-04-16T23:44:54.282Z,101624.26
2018-04-16T23:47:22.650Z,101623.67
2018-04-16T23:49:51.151Z,101625.85
2018-04-16T23:52:19.542Z,101625.86
2018-04-16T23:54:47.933Z,101629.35
2018-04-16T23:57:16.323Z,101631.38
2018-04-16T23:59:44.726Z,101634.66
